Decoded Metar for YCFS ( in ) (IATA:) | Meteo·Mobile Aviation Weather
aviador You're here:

YCFS Decoded Metar

in
Report Time2018-08-20 01:00:00
UTC Time2018-08-20 01:25:20
Flight Rules vfr VFR
Wind230° at 19 kt
W.Decomp.*RWY 21: 17.9 kt HW 6.5 kt RCW
RWY 28: 12.2 kt HW 14.6 kt LCW
W.Rank230° ranks 1
Current wind is above 230° avg. (9.1)
Visibility9999 m
Phenomena:N/A
Clouds:N/A
Expected CloudBase > 7,200 ft AGL from Temp-Dew spread
CeilingNone
Temp15°C
Dew Point-3°C (29% RH)
AAT5.8°C
QNH1017 hPa
Raw Report
METAR YCFS 200100Z AUTO 23019KT 9999 // NCD 15/M03 Q1017=

Extra information for YCFS:More info

Social comments